createdAt,value
2022-09-14T00:01:39.075Z,17.02
2022-09-14T00:04:12.544Z,10.13
2022-09-14T00:06:41.202Z,11.93
2022-09-14T00:09:17.109Z,16.25
2022-09-14T00:11:44.870Z,11.63
2022-09-14T00:14:12.557Z,12.30
2022-09-14T00:16:42.779Z,11.60
2022-09-14T00:19:19.244Z,14.40
2022-09-14T00:21:47.217Z,12.52
2022-09-14T00:24:16.211Z,13.38
2022-09-14T00:26:43.855Z,12.63
2022-09-14T00:29:12.329Z,14.57
2022-09-14T00:31:41.214Z,15.23
2022-09-14T00:34:13.518Z,13.20
2022-09-14T00:36:44.755Z,11.75
2022-09-14T00:39:13.161Z,15.32
2022-09-14T00:41:45.758Z,14.88
2022-09-14T00:45:02.597Z,16.48
2022-09-14T00:47:33.118Z,10.82
2022-09-14T00:50:04.753Z,12.50
2022-09-14T00:52:37.574Z,13.18
2022-09-14T00:55:10.284Z,12.05
2022-09-14T00:57:43.899Z,12.25
2022-09-14T01:00:15.605Z,12.68
2022-09-14T01:02:43.361Z,11.88
2022-09-14T01:05:12.896Z,9.93
2022-09-14T01:08:36.402Z,10.20
2022-09-14T01:11:23.981Z,8.55
2022-09-14T01:14:04.203Z,13.50
2022-09-14T01:16:43.224Z,9.88
2022-09-14T01:19:26.967Z,11.23
2022-09-14T01:22:02.725Z,8.40
2022-09-14T01:24:44.874Z,10.45
2022-09-14T01:27:32.019Z,12.65
2022-09-14T01:30:08.486Z,11.32
2022-09-14T01:32:45.808Z,9.82
2022-09-14T01:35:20.975Z,10.27
2022-09-14T01:37:55.840Z,10.88
2022-09-14T01:40:30.585Z,17.20
2022-09-14T01:43:18.969Z,11.35
2022-09-14T01:45:52.399Z,9.77
2022-09-14T01:48:28.027Z,12.70
2022-09-14T01:50:59.361Z,10.38
2022-09-14T01:53:34.667Z,9.15
2022-09-14T01:56:11.598Z,8.68
2022-09-14T01:58:47.541Z,9.18
2022-09-14T02:01:22.793Z,8.95
2022-09-14T02:03:59.119Z,10.05
2022-09-14T02:06:35.453Z,13.63
2022-09-14T02:09:05.023Z,10.13
2022-09-14T02:11:32.675Z,10.50
2022-09-14T02:14:02.058Z,9.15
2022-09-14T02:16:30.077Z,8.48
2022-09-14T02:18:59.071Z,8.57
2022-09-14T02:21:30.078Z,8.85
2022-09-14T02:23:59.078Z,11.75
2022-09-14T02:26:27.972Z,11.38
2022-09-14T02:28:56.446Z,10.05
2022-09-14T02:31:39.069Z,8.13
2022-09-14T02:34:23.609Z,8.38
2022-09-14T02:37:01.601Z,8.07
2022-09-14T02:39:41.043Z,8.23
2022-09-14T02:42:23.748Z,10.02
2022-09-14T02:45:07.690Z,9.30
2022-09-14T02:47:49.772Z,8.10
2022-09-14T02:50:29.643Z,9.52
2022-09-14T02:53:08.861Z,7.70
2022-09-14T02:55:42.894Z,9.35
2022-09-14T02:58:13.837Z,9.13
2022-09-14T03:03:16.493Z,7.82
2022-09-14T03:05:44.508Z,8.73
2022-09-14T03:08:13.013Z,7.28
2022-09-14T03:10:44.199Z,8.18
2022-09-14T03:13:12.833Z,8.05
2022-09-14T03:15:41.393Z,8.13
2022-09-14T03:18:14.129Z,8.93
2022-09-14T03:20:44.659Z,8.60
2022-09-14T03:23:13.351Z,9.20
2022-09-14T03:25:43.463Z,8.95
2022-09-14T03:28:13.140Z,6.68
2022-09-14T03:30:41.014Z,7.63
2022-09-14T03:33:08.701Z,8.35
2022-09-14T03:35:36.345Z,9.25
2022-09-14T03:38:05.484Z,6.18
2022-09-14T03:40:33.169Z,10.25
2022-09-14T03:43:00.824Z,7.63
2022-09-14T03:45:28.445Z,7.70
2022-09-14T03:47:56.120Z,9.15
2022-09-14T03:50:23.747Z,9.43
2022-09-14T03:52:51.372Z,8.32
2022-09-14T03:55:20.591Z,9.50
2022-09-14T03:57:48.213Z,7.80
2022-09-14T04:00:16.530Z,7.78
2022-09-14T04:02:45.372Z,7.63
2022-09-14T04:05:13.090Z,8.55
2022-09-14T04:07:40.820Z,7.80
2022-09-14T04:10:10.234Z,8.18
2022-09-14T04:12:40.417Z,7.72
2022-09-14T04:15:10.167Z,7.90
2022-09-14T04:17:37.819Z,8.05
2022-09-14T04:20:06.584Z,5.95
2022-09-14T04:22:34.952Z,7.47
2022-09-14T04:25:02.632Z,5.82
2022-09-14T04:27:31.496Z,7.28
2022-09-14T04:30:00.452Z,7.70
2022-09-14T04:32:33.568Z,8.30
2022-09-14T04:35:02.015Z,6.30
2022-09-14T04:37:32.695Z,7.60
2022-09-14T04:40:01.180Z,6.53
2022-09-14T04:42:30.869Z,6.32
2022-09-14T04:44:59.887Z,7.30
2022-09-14T04:47:29.781Z,7.43
2022-09-14T04:49:57.459Z,5.90
2022-09-14T04:52:25.165Z,6.10
2022-09-14T04:54:52.765Z,6.50
2022-09-14T04:57:20.473Z,5.60
2022-09-14T04:59:48.074Z,8.05
2022-09-14T05:02:17.116Z,5.15
2022-09-14T05:04:44.813Z,7.82
2022-09-14T05:07:12.889Z,6.18
2022-09-14T05:09:40.508Z,5.50
2022-09-14T05:12:08.971Z,6.00
2022-09-14T05:14:36.593Z,5.03
2022-09-14T05:17:04.758Z,7.95
2022-09-14T05:19:33.719Z,6.03
2022-09-14T05:22:01.363Z,5.55
2022-09-14T05:24:28.986Z,6.47
2022-09-14T05:27:00.207Z,4.85
2022-09-14T05:29:31.774Z,7.35
2022-09-14T05:31:59.621Z,5.93
2022-09-14T05:34:27.547Z,6.55
2022-09-14T05:36:56.501Z,5.90
2022-09-14T05:39:24.926Z,6.03
2022-09-14T05:41:52.920Z,4.93
2022-09-14T05:44:20.579Z,5.57
2022-09-14T05:46:48.361Z,6.50
2022-09-14T05:49:15.986Z,5.88
2022-09-14T05:51:43.615Z,4.88
2022-09-14T05:54:12.560Z,6.07
2022-09-14T05:56:40.207Z,5.43
2022-09-14T05:59:07.899Z,6.00
2022-09-14T06:01:35.604Z,6.68
2022-09-14T06:04:04.491Z,5.75
2022-09-14T06:06:35.074Z,6.03
2022-09-14T06:09:04.443Z,4.30
2022-09-14T06:11:37.296Z,5.20
2022-09-14T06:14:06.108Z,5.43
2022-09-14T06:16:33.790Z,5.47
2022-09-14T06:19:02.422Z,5.43
2022-09-14T06:21:32.384Z,5.97
2022-09-14T06:24:00.750Z,4.47
2022-09-14T06:26:28.425Z,5.50
2022-09-14T06:28:58.694Z,4.93
2022-09-14T06:31:26.595Z,7.63
2022-09-14T06:33:54.400Z,5.05
2022-09-14T06:36:24.729Z,5.53
2022-09-14T06:38:53.478Z,4.75
2022-09-14T06:41:23.819Z,5.45
2022-09-14T06:43:52.238Z,4.30
2022-09-14T06:46:24.448Z,5.97
2022-09-14T06:48:55.485Z,4.93
2022-09-14T06:51:26.781Z,5.43
2022-09-14T06:53:54.770Z,4.68
2022-09-14T06:56:22.657Z,5.18
2022-09-14T06:58:52.093Z,6.80
2022-09-14T07:01:22.615Z,5.00
2022-09-14T07:03:52.295Z,6.43
2022-09-14T07:06:22.384Z,4.95
2022-09-14T07:08:52.154Z,5.65
2022-09-14T07:11:23.467Z,4.30
2022-09-14T07:13:51.354Z,5.63
2022-09-14T07:16:19.017Z,10.18
2022-09-14T07:18:48.391Z,7.05
2022-09-14T07:21:18.356Z,6.32
2022-09-14T07:23:48.349Z,4.70
2022-09-14T07:26:20.232Z,4.50
2022-09-14T07:28:51.584Z,5.13
2022-09-14T07:31:22.265Z,3.55
2022-09-14T07:33:54.820Z,4.50
2022-09-14T07:36:24.876Z,4.20
2022-09-14T07:38:53.440Z,3.07
2022-09-14T07:41:22.400Z,4.43
2022-09-14T07:43:51.230Z,4.70
2022-09-14T07:46:20.017Z,6.05
2022-09-14T07:48:49.074Z,4.82
2022-09-14T07:51:18.165Z,4.55
2022-09-14T07:53:45.917Z,3.58
2022-09-14T07:56:16.475Z,6.25
2022-09-14T07:58:44.786Z,4.10
2022-09-14T08:01:15.578Z,3.20
2022-09-14T08:06:14.975Z,3.65
2022-09-14T08:08:46.858Z,3.53
2022-09-14T08:11:17.293Z,3.50
2022-09-14T08:13:49.686Z,4.07
2022-09-14T08:16:19.107Z,4.05
2022-09-14T08:18:48.234Z,3.80
2022-09-14T08:21:18.608Z,3.65
2022-09-14T08:23:47.580Z,4.65
2022-09-14T08:26:17.549Z,4.72
2022-09-14T08:28:46.724Z,4.23
2022-09-14T08:31:17.027Z,5.20
2022-09-14T08:33:47.470Z,5.25
2022-09-14T08:36:18.530Z,3.05
2022-09-14T08:38:47.986Z,3.55
2022-09-14T08:41:29.824Z,6.72
2022-09-14T08:44:02.993Z,4.40
2022-09-14T08:46:35.581Z,3.47
2022-09-14T08:49:10.905Z,3.90
2022-09-14T08:51:38.702Z,5.05
2022-09-14T08:54:11.282Z,4.32
2022-09-14T08:56:44.662Z,3.75
2022-09-14T08:59:43.788Z,4.45
2022-09-14T09:02:39.389Z,3.08
2022-09-14T09:05:26.949Z,3.22
2022-09-14T09:08:03.986Z,4.45
2022-09-14T09:10:35.346Z,4.82
2022-09-14T09:13:07.688Z,5.07
2022-09-14T09:15:41.202Z,4.18
2022-09-14T09:18:15.207Z,2.95
2022-09-14T09:20:49.016Z,3.35
2022-09-14T09:23:19.235Z,5.30
2022-09-14T09:26:00.124Z,3.13
2022-09-14T09:28:30.381Z,2.97
2022-09-14T09:31:05.084Z,6.28
2022-09-14T09:33:33.897Z,3.38
2022-09-14T09:36:01.803Z,4.35
2022-09-14T09:38:30.643Z,3.80
2022-09-14T09:41:08.061Z,4.05
2022-09-14T09:43:50.993Z,4.28
2022-09-14T09:46:18.891Z,2.83
2022-09-14T09:48:47.540Z,3.65
2022-09-14T09:51:23.499Z,3.33
2022-09-14T09:53:55.067Z,2.50
2022-09-14T09:56:27.342Z,2.55
2022-09-14T09:58:55.186Z,3.17
2022-09-14T10:01:30.179Z,3.67
2022-09-14T10:04:06.447Z,2.15
2022-09-14T10:06:43.998Z,3.28
2022-09-14T10:09:19.005Z,2.97
2022-09-14T10:11:57.091Z,4.10
2022-09-14T10:14:31.282Z,2.38
2022-09-14T10:17:18.853Z,2.55
2022-09-14T10:19:49.731Z,2.22
2022-09-14T10:24:59.933Z,3.72
2022-09-14T10:27:42.076Z,2.17
2022-09-14T10:30:18.241Z,1.95
2022-09-14T10:33:00.349Z,2.33
2022-09-14T10:35:43.202Z,7.50
2022-09-14T10:38:31.947Z,2.50
2022-09-14T10:41:13.839Z,2.60
2022-09-14T10:44:16.266Z,2.08
2022-09-14T10:47:09.174Z,4.30
2022-09-14T10:49:57.759Z,1.85
2022-09-14T10:52:39.129Z,3.17
2022-09-14T10:55:34.255Z,1.92
2022-09-14T10:58:24.637Z,2.13
2022-09-14T11:01:12.490Z,1.90
2022-09-14T11:04:01.947Z,3.13
2022-09-14T11:06:46.610Z,6.95
2022-09-14T11:09:24.583Z,3.50
2022-09-14T11:12:07.833Z,2.38
2022-09-14T11:14:57.837Z,2.95
2022-09-14T11:18:09.119Z,2.28
2022-09-14T11:20:53.630Z,2.25
2022-09-14T11:23:37.239Z,2.45
2022-09-14T11:26:11.578Z,2.60
2022-09-14T11:28:45.229Z,2.25
2022-09-14T11:31:20.334Z,2.20
2022-09-14T11:33:56.910Z,2.42
2022-09-14T11:36:30.223Z,3.38
2022-09-14T11:39:07.251Z,2.30
2022-09-14T11:41:42.491Z,2.42
2022-09-14T11:44:20.245Z,2.67
2022-09-14T11:47:00.491Z,3.65
2022-09-14T11:49:42.000Z,2.25
2022-09-14T11:52:19.611Z,2.40
2022-09-14T11:54:48.283Z,6.47
2022-09-14T11:57:19.507Z,2.42
2022-09-14T11:59:51.893Z,2.97
2022-09-14T12:03:01.594Z,2.03
2022-09-14T12:05:34.566Z,3.33
2022-09-14T12:08:29.688Z,4.50
2022-09-14T12:11:23.958Z,2.40
2022-09-14T12:14:15.096Z,4.93
2022-09-14T12:17:38.801Z,2.45
2022-09-14T12:23:14.973Z,1.90
2022-09-14T12:26:04.290Z,2.05
2022-09-14T12:28:48.847Z,4.15
2022-09-14T12:31:58.809Z,2.25
2022-09-14T12:34:30.315Z,4.20
2022-09-14T12:37:32.125Z,4.05
2022-09-14T12:40:36.660Z,3.55
2022-09-14T12:43:55.693Z,2.08
2022-09-14T12:46:39.773Z,3.10
2022-09-14T12:49:40.555Z,2.47
2022-09-14T12:52:44.314Z,2.97
2022-09-14T12:55:37.935Z,3.45
2022-09-14T12:58:24.127Z,2.55
2022-09-14T13:01:15.036Z,2.22
2022-09-14T13:06:19.599Z,2.13
2022-09-14T13:08:50.996Z,2.45
2022-09-14T13:11:33.819Z,3.85
2022-09-14T13:14:03.198Z,2.88
2022-09-14T13:16:41.880Z,5.35
2022-09-14T13:19:23.842Z,3.42
2022-09-14T13:21:54.670Z,3.35
2022-09-14T13:27:02.887Z,2.00
2022-09-14T13:29:31.685Z,2.75
2022-09-14T13:32:03.858Z,3.08
2022-09-14T13:34:38.336Z,2.40
2022-09-14T13:37:07.018Z,4.75
2022-09-14T13:39:38.591Z,4.72
2022-09-14T13:42:08.557Z,2.67
2022-09-14T13:44:45.055Z,3.43
2022-09-14T13:47:16.335Z,2.58
2022-09-14T13:49:46.596Z,3.92
2022-09-14T13:53:00.414Z,4.68
2022-09-14T13:55:29.886Z,2.50
2022-09-14T14:00:59.904Z,1.88
2022-09-14T14:03:35.030Z,2.72
2022-09-14T14:06:21.323Z,2.85
2022-09-14T14:08:58.420Z,2.47
2022-09-14T14:11:35.156Z,4.43
2022-09-14T14:14:22.324Z,2.65
2022-09-14T14:17:34.257Z,2.58
2022-09-14T14:20:33.530Z,5.03
2022-09-14T14:23:19.922Z,3.28
2022-09-14T14:25:54.140Z,9.18
2022-09-14T14:28:26.535Z,2.60
2022-09-14T14:30:58.011Z,3.13
2022-09-14T14:33:26.644Z,3.25
2022-09-14T14:35:56.745Z,2.83
2022-09-14T14:38:25.932Z,5.13
2022-09-14T14:40:58.046Z,2.67
2022-09-14T14:43:27.893Z,3.13
2022-09-14T14:45:59.633Z,2.80
2022-09-14T14:48:28.198Z,2.65
2022-09-14T14:50:56.248Z,3.38
2022-09-14T14:53:24.212Z,3.20
2022-09-14T14:55:53.168Z,4.43
2022-09-14T14:58:22.846Z,2.97
2022-09-14T15:00:51.780Z,3.03
2022-09-14T15:03:20.946Z,4.93
2022-09-14T15:05:50.568Z,3.25
2022-09-14T15:08:20.694Z,3.67
2022-09-14T15:10:49.577Z,4.03
2022-09-14T15:13:17.217Z,4.18
2022-09-14T15:15:45.015Z,2.85
2022-09-14T15:18:12.657Z,3.42
2022-09-14T15:20:41.870Z,3.25
2022-09-14T15:23:12.090Z,3.30
2022-09-14T15:25:39.948Z,3.85
2022-09-14T15:28:07.644Z,2.70
2022-09-14T15:30:35.295Z,3.30
2022-09-14T15:33:03.033Z,4.78
2022-09-14T15:35:30.666Z,3.50
2022-09-14T15:37:59.711Z,2.50
2022-09-14T15:40:27.540Z,7.43
2022-09-14T15:42:55.235Z,4.68
2022-09-14T15:45:23.063Z,3.28
2022-09-14T15:47:50.800Z,4.10
2022-09-14T15:50:18.517Z,3.90
2022-09-14T15:52:46.258Z,3.28
2022-09-14T15:55:15.223Z,4.95
2022-09-14T15:57:42.846Z,3.50
2022-09-14T16:00:13.926Z,4.38
2022-09-14T16:02:41.883Z,2.67
2022-09-14T16:05:10.473Z,4.90
2022-09-14T16:07:38.107Z,3.75
2022-09-14T16:10:07.331Z,2.88
2022-09-14T16:12:36.317Z,7.25
2022-09-14T16:15:04.050Z,2.92
2022-09-14T16:17:31.951Z,3.15
2022-09-14T16:19:59.562Z,3.97
2022-09-14T16:22:27.390Z,3.30
2022-09-14T16:24:55.020Z,3.15
2022-09-14T16:27:22.747Z,3.20
2022-09-14T16:29:53.673Z,2.58
2022-09-14T16:32:22.087Z,5.65
2022-09-14T16:34:49.717Z,2.60
2022-09-14T16:37:17.410Z,4.55
2022-09-14T16:39:45.277Z,3.67
2022-09-14T16:42:12.942Z,4.10
2022-09-14T16:44:40.635Z,4.22
2022-09-14T16:47:09.672Z,3.00
2022-09-14T16:49:39.273Z,2.85
2022-09-14T16:52:07.070Z,3.20
2022-09-14T16:54:34.688Z,2.85
2022-09-14T16:57:02.385Z,4.55
2022-09-14T16:59:30.013Z,3.33
2022-09-14T17:01:57.754Z,2.33
2022-09-14T17:04:26.710Z,2.65
2022-09-14T17:06:55.995Z,2.72
2022-09-14T17:09:27.062Z,2.97
2022-09-14T17:11:56.340Z,2.50
2022-09-14T17:14:28.638Z,2.67
2022-09-14T17:16:56.838Z,3.67
2022-09-14T17:19:26.535Z,3.00
2022-09-14T17:21:54.340Z,2.80
2022-09-14T17:24:22.610Z,2.47
2022-09-14T17:26:50.841Z,2.00
2022-09-14T17:29:19.395Z,3.45
2022-09-14T17:31:47.224Z,2.70
2022-09-14T17:34:17.067Z,3.92
2022-09-14T17:36:46.514Z,5.30
2022-09-14T17:39:15.407Z,4.38
2022-09-14T17:41:43.920Z,2.92
2022-09-14T17:44:13.637Z,4.10
2022-09-14T17:46:51.703Z,2.88
2022-09-14T17:49:20.918Z,3.85
2022-09-14T17:51:50.307Z,5.50
2022-09-14T17:54:19.036Z,6.25
2022-09-14T17:56:47.065Z,5.72
2022-09-14T17:59:19.870Z,3.75
2022-09-14T18:01:47.889Z,6.20
2022-09-14T18:04:16.120Z,4.60
2022-09-14T18:06:46.797Z,11.60
2022-09-14T18:09:18.972Z,14.95
2022-09-14T18:11:47.425Z,15.57
2022-09-14T18:14:16.705Z,13.05
2022-09-14T18:16:45.913Z,14.80
2022-09-14T18:19:14.738Z,20.08
2022-09-14T18:21:43.111Z,12.07
2022-09-14T18:24:13.195Z,14.70
2022-09-14T18:26:43.495Z,16.83
2022-09-14T18:29:15.140Z,13.38
2022-09-14T18:31:43.330Z,18.35
2022-09-14T18:34:11.387Z,13.65
2022-09-14T18:36:39.287Z,19.65
2022-09-14T18:39:06.912Z,13.63
2022-09-14T18:41:34.598Z,18.33
2022-09-14T18:44:04.303Z,14.52
2022-09-14T18:46:33.127Z,18.48
2022-09-14T18:49:03.097Z,17.58
2022-09-14T18:51:32.765Z,22.80
2022-09-14T18:54:03.178Z,19.25
2022-09-14T18:56:33.034Z,20.13
2022-09-14T18:59:03.315Z,14.77
2022-09-14T19:01:31.259Z,10.90
2022-09-14T19:03:59.016Z,6.47
2022-09-14T19:06:26.969Z,4.10
2022-09-14T19:08:55.493Z,3.90
2022-09-14T19:11:27.186Z,1.58
2022-09-14T19:13:57.827Z,1.42
2022-09-14T19:16:26.942Z,0.95
2022-09-14T19:18:54.754Z,0.80
2022-09-14T19:21:25.683Z,0.70
2022-09-14T19:26:30.501Z,0.60
2022-09-14T19:29:01.536Z,1.25
2022-09-14T19:31:31.459Z,0.60
2022-09-14T19:34:00.119Z,0.40
2022-09-14T19:36:28.967Z,0.93
2022-09-14T19:39:01.563Z,0.90
2022-09-14T19:41:30.778Z,2.95
2022-09-14T19:43:58.752Z,1.05
2022-09-14T19:46:26.501Z,1.35
2022-09-14T19:48:55.838Z,3.25
2022-09-14T19:51:27.031Z,0.80
2022-09-14T19:53:59.031Z,2.70
2022-09-14T19:56:33.011Z,0.73
2022-09-14T19:59:03.151Z,2.67
2022-09-14T20:01:33.286Z,1.17
2022-09-14T20:04:03.626Z,0.75
2022-09-14T20:06:35.064Z,0.98
2022-09-14T20:09:07.571Z,1.15
2022-09-14T20:11:37.827Z,0.70
2022-09-14T20:14:08.689Z,0.80
2022-09-14T20:19:11.962Z,1.47
2022-09-14T20:21:41.348Z,0.85
2022-09-14T20:24:17.768Z,0.70
2022-09-14T20:26:46.844Z,1.70
2022-09-14T20:29:15.343Z,0.80
2022-09-14T20:31:43.445Z,0.60
2022-09-14T20:34:13.737Z,1.23
2022-09-14T20:36:41.416Z,0.80
2022-09-14T20:39:09.990Z,0.60
2022-09-14T20:41:37.869Z,0.88
2022-09-14T20:44:06.114Z,1.67
2022-09-14T20:46:38.488Z,0.93
2022-09-14T20:49:10.132Z,3.13
2022-09-14T20:51:40.157Z,1.42
2022-09-14T20:54:11.331Z,0.57
2022-09-14T20:56:39.597Z,2.60
2022-09-14T20:59:12.001Z,0.65
2022-09-14T21:01:43.250Z,2.95
2022-09-14T21:04:14.335Z,1.55
2022-09-14T21:06:48.739Z,2.10
2022-09-14T21:09:18.686Z,0.80
2022-09-14T21:11:47.792Z,0.63
2022-09-14T21:14:18.295Z,0.82
2022-09-14T21:16:52.917Z,1.67
2022-09-14T21:19:24.393Z,1.15
2022-09-14T21:21:53.945Z,1.60
2022-09-14T21:24:23.468Z,1.35
2022-09-14T21:26:51.373Z,1.05
2022-09-14T21:29:23.449Z,3.63
2022-09-14T21:31:51.727Z,1.10
2022-09-14T21:34:19.763Z,0.88
2022-09-14T21:36:50.736Z,1.70
2022-09-14T21:39:25.648Z,0.90
2022-09-14T21:41:58.901Z,0.93
2022-09-14T21:44:31.262Z,1.00
2022-09-14T21:46:59.119Z,1.58
2022-09-14T21:49:26.778Z,0.95
2022-09-14T21:51:54.428Z,1.63
2022-09-14T21:54:23.583Z,0.90
2022-09-14T21:56:51.221Z,0.70
2022-09-14T21:59:22.845Z,1.45
2022-09-14T22:01:50.625Z,1.95
2022-09-14T22:04:21.691Z,1.40
2022-09-14T22:06:51.221Z,3.50
2022-09-14T22:09:22.064Z,4.88
2022-09-14T22:14:21.826Z,2.67
2022-09-14T22:16:49.942Z,2.95
2022-09-14T22:19:20.352Z,1.33
2022-09-14T22:21:48.633Z,2.85
2022-09-14T22:24:19.215Z,0.85
2022-09-14T22:26:47.337Z,1.92
2022-09-14T22:29:16.583Z,0.90
2022-09-14T22:31:45.828Z,0.80
2022-09-14T22:34:14.745Z,2.13
2022-09-14T22:36:42.542Z,0.93
2022-09-14T22:39:11.522Z,1.35
2022-09-14T22:41:39.690Z,1.17
2022-09-14T22:44:08.739Z,2.63
2022-09-14T22:46:37.735Z,1.13
2022-09-14T22:49:05.552Z,1.30
2022-09-14T22:51:33.398Z,0.80
2022-09-14T22:54:01.931Z,1.83
2022-09-14T22:56:33.145Z,1.20
2022-09-14T22:59:03.053Z,1.05
2022-09-14T23:01:33.933Z,2.53
2022-09-14T23:06:36.959Z,0.82
2022-09-14T23:09:06.265Z,1.38
2022-09-14T23:11:33.972Z,1.38
2022-09-14T23:14:01.636Z,0.85
2022-09-14T23:16:31.498Z,1.23
2022-09-14T23:19:01.749Z,1.00
2022-09-14T23:21:32.282Z,0.73
2022-09-14T23:24:02.207Z,4.47
2022-09-14T23:26:30.574Z,1.17
2022-09-14T23:29:01.126Z,0.82
2022-09-14T23:31:30.313Z,1.77
2022-09-14T23:34:04.691Z,0.85
2022-09-14T23:36:34.643Z,1.00
2022-09-14T23:39:03.434Z,1.53
2022-09-14T23:41:31.402Z,2.35
2022-09-14T23:43:59.023Z,0.75
2022-09-14T23:46:26.746Z,1.10
2022-09-14T23:48:54.454Z,1.00
2022-09-14T23:51:22.095Z,1.90
2022-09-14T23:53:51.294Z,2.97
2022-09-14T23:56:18.922Z,0.77
2022-09-14T23:58:46.669Z,1.15
